Station: Telfer

  Atmospheric Gas Attenuation - ITU Rec 676-11   --------------- db/100km ---------------
Date Time Temp RH % AH g/m3 Dew Point Wind Direction Speed kph Gust kph Barometer mB Rainfall Since 9am 24GHz 47GHz 76GHz 122GHz 134GHz 241GHz
07 05:40 11.1 61 6.15 3.9 20 22 1018.6 0 14.5 23.0 31.7 82.6 70.2 239.1
07 05:30 11.2 61 6.18 4 20 24 1017.6 0 14.5 22.9 31.7 82.7 70.4 239.9
07 05:20 11.3 60 6.12 3.8 19 20 1018.4 0 14.4 22.9 31.5 82.1 69.6 237.2
07 05:10 11.3 53 5.41 2.1 19 22 1018.2 0 12.9 21.8 28.8 75.0 60.9 206.5
07 05:00 11.3 56 5.71 2.9 17 20 1017.2 0 13.5 22.2 29.9 77.9 64.5 219.2
07 04:50 11.6 50 5.2 1.5 17 17 1018.1 0 12.4 21.4 27.9 72.7 58.1 196.9
07 04:40 11.9 50 5.3 1.8 17 20 1018.1 0 12.6 21.5 28.2 73.4 59.1 200.3
07 04:30 12.2 57 6.15 3.9 17 20 1017.1 0 14.4 22.6 31.2 81.3 69.1 235.6
07 04:20 12.5 57 6.27 4.2 17 20 1018 0 14.7 22.8 31.5 82.3 70.4 240.0
07 04:10 12.7 56 6.23 4.2 19 20 1018 0 14.6 22.7 31.3 81.7 69.7 237.7
07 04:00 12.7 56 6.23 4.2 17 20 1017 0 14.6 22.6 31.3 81.6 69.6 237.5
07 03:40 13.1 55 6.28 4.3 17 19 1018 0 14.7 22.6 31.3 81.8 70.0 238.7
07 03:10 13.4 54 6.28 4.3 19 22 1017.7 0 14.7 22.6 31.2 81.5 69.7 237.7
07 03:00 13.3 54 6.24 4.2 19 22 1016.6 0 14.6 22.5 31.1 81.1 69.2 236.1
07 02:50 13.3 54 6.24 4.2 19 20 1017.5 0 14.6 22.5 31.1 81.2 69.3 236.3
07 02:40 13.4 54 6.28 4.3 19 20 1017.4 0 14.7 22.5 31.2 81.4 69.7 237.7
07 02:30 13.4 54 6.28 4.3 19 22 1016.3 0 14.7 22.5 31.2 81.3 69.6 237.5
07 02:20 13.3 55 6.35 4.5 19 20 1017.3 0 14.8 22.7 31.5 82.2 70.6 241.0
07 02:10 13 55 6.24 4.2 17 19 1017.3 0 14.6 22.6 31.2 81.4 69.5 237.1
07 02:00 13 51 5.78 3.1 17 20 1016.3 0 13.6 21.9 29.5 76.8 63.9 217.4
07 01:50 13.1 53 6.05 3.7 19 20 1017.4 0 14.2 22.3 30.5 79.5 67.1 228.7
07 01:30 13.1 54 6.16 4 19 20 1016.5 0 14.4 22.4 30.8 80.5 68.4 233.2
07 01:20 13.6 53 6.24 4.2 19 22 1017.7 0 14.6 22.4 31.0 80.9 69.0 235.4
07 01:10 13.7 52 6.16 4 17 20 1017.9 0 14.4 22.3 30.7 80.0 68.0 231.8
07 01:00 13.7 52 6.16 4 17 20 1017 0 14.4 22.3 30.6 79.9 67.9 231.6
07 00:50 13.8 52 6.2 4.1 15 17 1018.1 0 14.5 22.4 30.8 80.3 68.4 233.2
07 00:40 14 51 6.15 4 17 19 1018.1 0 14.4 22.2 30.5 79.6 67.6 230.5
07 00:30 14.1 51 6.19 4.1 15 19 1017.1 0 14.4 22.2 30.6 79.8 68.0 231.8
07 00:20 14 50 6.03 3.8 13 15 1018.2 0 14.1 22.1 30.1 78.5 66.2 225.5
07 00:10 13.8 48 5.72 3 13 13 1018.2 0 13.5 21.6 29.1 75.7 62.6 213.1
07 00:00 14.7 47 5.92 3.5 13 19 1017.2 0 13.9 21.7 29.4 76.6 64.2 218.8
06 23:50 15.8 46 6.19 4.2 15 19 1018.2 0 14.4 21.9 30.0 78.3 66.6 227.2
06 23:40 16.1 46 6.31 4.5 15 19 1018.2 0 14.6 22.0 30.3 79.1 67.7 231.3
06 23:30 16.2 46 6.34 4.6 17 22 1017.2 0 14.7 21.9 30.4 79.2 68.0 232.0
06 23:20 16.2 45 6.21 4.3 17 19 1018.4 0 14.4 21.8 29.9 78.1 66.5 226.9
06 23:10 16.4 44 6.14 4.1 15 19 1018.5 0 14.3 21.7 29.6 77.2 65.5 223.5
06 23:00 16.7 43 6.11 4.1 19 26 1017.5 0 14.2 21.5 29.4 76.6 64.9 221.3
06 22:50 16.7 43 6.11 4.1 19 24 1018.5 0 14.2 21.5 29.4 76.7 64.9 221.4
06 22:40 16.8 42 6 3.8 19 22 1018.4 0 13.9 21.4 29.0 75.5 63.6 216.7
06 22:30 16.8 40 5.72 3.1 20 24 1017.4 0 13.4 20.9 28.0 72.9 60.3 205.2
06 22:20 16.8 40 5.72 3.1 17 19 1018.3 0 13.4 21.0 28.0 72.9 60.4 205.4
06 22:10 17 40 5.79 3.3 17 20 1018.2 0 13.5 21.0 28.2 73.4 61.0 207.7
06 22:00 17.3 36 5.3 2.1 22 28 1017.2 0 12.5 20.2 26.4 68.6 55.2 187.4
06 21:50 17.5 38 5.66 3 20 26 1018.1 0 13.2 20.7 27.6 71.7 59.1 201.2
06 21:40 17.8 38 5.77 3.3 22 28 1018 0 13.4 20.8 27.8 72.5 60.2 204.8
06 21:30 17.7 37 5.58 2.8 19 22 1017 0 13.0 20.5 27.2 70.8 58.0 197.4
06 21:20 17.8 36 5.46 2.5 17 19 1017.9 0 12.8 20.4 26.8 69.7 56.7 192.6
06 21:10 18 36 5.53 2.7 20 24 1017.9 0 12.9 20.4 27.0 70.1 57.3 194.9
06 21:00 18.1 35 5.41 2.4 20 26 1016.9 0 12.7 20.2 26.5 68.9 55.9 189.8
06 20:50 18.2 35 5.44 2.5 20 22 1017.8 0 12.7 20.3 26.6 69.1 56.2 190.9
06 20:40 18.2 35 5.44 2.5 19 22 1017.8 0 12.7 20.3 26.6 69.1 56.2 190.9
06 20:30 18.5 34 5.38 2.4 20 28 1016.7 0 12.6 20.1 26.3 68.3 55.3 187.7
06 20:20 18.5 34 5.38 2.4 20 26 1017.5 0 12.6 20.1 26.3 68.3 55.3 187.8
06 20:10 18.5 33 5.22 1.9 20 24 1017.4 0 12.3 19.9 25.7 66.9 53.5 181.6
06 20:00 18.6 33 5.25 2 19 24 1016.3 0 12.3 19.9 25.8 67.0 53.7 182.4
06 19:50 18.8 33 5.31 2.2 19 22 1017.2 0 12.4 19.9 25.9 67.4 54.3 184.4
06 19:40 18.8 32 5.15 1.8 17 20 1017 0 12.1 19.7 25.4 66.0 52.6 178.2
06 19:30 18.7 32 5.12 1.7 15 19 1015.9 0 12.0 19.7 25.3 65.7 52.3 177.1
06 19:20 18.8 32 5.15 1.8 15 17 1016.8 0 12.1 19.7 25.4 66.0 52.6 178.2
06 19:10 18.9 31 5.02 1.4 15 17 1016.7 0 11.8 19.5 24.9 64.8 51.1 173.0
06 19:00 18.7 32 5.12 1.7 11 13 1015.7 0 12.0 19.6 25.3 65.7 52.2 177.1
06 18:50 18.6 31 4.93 1.2 11 11 1016.5 0 11.6 19.4 24.7 64.2 50.3 170.2
06 18:40 18.8 30 4.83 0.9 11 13 1016.4 0 11.4 19.3 24.4 63.2 49.1 166.0
06 18:30 18.9 30 4.86 1 11 11 1015.2 0 11.5 19.2 24.4 63.3 49.3 166.8
06 18:20 19.2 29 4.78 0.8 11 13 1016.1 0 11.3 19.1 24.1 62.4 48.3 163.3
06 18:10 19.4 29 4.84 0.9 13 13 1015.9 0 11.4 19.1 24.2 62.8 48.8 165.1
06 18:00 19.7 28 4.75 0.7 15 19 1014.8 0 11.2 18.9 23.8 61.7 47.6 161.0
06 17:50 20.2 28 4.9 1.1 17 19 1015.7 0 11.5 19.1 24.1 62.7 49.0 165.8
06 17:40 20.4 27 4.78 0.8 19 20 1015.6 0 11.3 18.9 23.7 61.5 47.6 160.9
06 17:30 20.7 27 4.86 1.1 19 26 1014.5 0 11.4 18.9 23.8 61.9 48.2 163.1
06 17:20 21.1 26 4.79 0.9 22 26 1015.5 0 11.3 18.7 23.5 61.1 47.3 159.9
06 17:10 21.5 25 4.71 0.7 17 19 1015.5 0 11.1 18.5 23.2 60.1 46.2 156.3
06 17:00 21.6 25 4.74 0.8 24 32 1014.4 0 11.2 18.5 23.2 60.2 46.4 157.0
06 16:50 21.9 25 4.82 1 22 28 1015.4 0 11.3 18.6 23.4 60.7 47.1 159.5
06 16:40 21.8 25 4.8 0.9 28 33 1015.3 0 11.3 18.6 23.4 60.6 47.0 158.9
06 16:30 22.1 24 4.68 0.6 24 37 1014.4 0 11.0 18.4 22.9 59.3 45.5 153.9
06 16:20 22 24 4.66 0.5 19 22 1015.4 0 11.0 18.4 22.9 59.3 45.4 153.5
06 16:10 22.2 25 4.91 1.3 19 20 1015.3 0 11.5 18.7 23.6 61.2 47.9 162.2
06 16:00 22.2 25 4.91 1.3 22 32 1014.3 0 11.5 18.6 23.6 61.2 47.8 162.0
06 15:50 21.9 26 5.02 1.5 20 26 1015.3 0 11.7 18.9 24.0 62.4 49.2 166.7
06 15:40 21.7 26 4.96 1.4 26 30 1015.3 0 11.6 18.8 23.9 62.0 48.7 164.9
06 15:30 22.1 26 5.07 1.7 24 33 1014.2 0 11.8 18.8 24.1 62.6 49.5 168.0
06 15:20 21.8 26 4.99 1.5 20 24 1015.3 0 11.7 18.8 24.0 62.2 48.9 165.8
06 15:10 21.7 26 4.96 1.4 24 28 1015.2 0 11.6 18.8 23.9 62.0 48.7 164.9
06 15:00 21.4 26 4.87 1.1 26 37 1014.3 0 11.4 18.7 23.7 61.4 47.9 162.1
06 14:50 21.8 25 4.8 0.9 30 37 1015.3 0 11.3 18.6 23.4 60.6 47.0 158.9
06 14:40 22.2 25 4.91 1.3 24 33 1015.3 0 11.5 18.7 23.6 61.2 47.9 162.2
06 14:30 21.8 25 4.8 0.9 24 35 1014.4 0 11.3 18.6 23.3 60.5 46.9 158.8
06 14:20 21.7 25 4.77 0.8 19 22 1015.4 0 11.2 18.6 23.3 60.4 46.7 158.1
06 14:10 21.9 24 4.63 0.4 22 28 1015.5 0 10.9 18.4 22.8 59.1 45.2 152.7
06 14:00 21.5 26 4.9 1.2 24 33 1014.6 0 11.5 18.8 23.7 61.6 48.2 163.0
06 13:50 21.2 26 4.82 1 20 24 1015.7 0 11.3 18.7 23.6 61.2 47.5 160.9
06 13:40 21.2 25 4.63 0.4 28 33 1015.8 0 10.9 18.5 23.0 59.7 45.6 154.0
06 13:30 21.1 26 4.79 0.9 24 35 1014.9 0 11.3 18.7 23.5 61.0 47.3 159.8
06 13:20 20.9 26 4.73 0.7 26 30 1016.1 0 11.2 18.7 23.4 60.7 46.8 158.2
06 13:10 21 27 4.95 1.3 22 28 1016.1 0 11.6 19.0 24.1 62.5 49.0 166.1
06 13:00 20.6 27 4.83 1 24 33 1015.4 0 11.4 18.9 23.8 61.8 48.0 162.3
06 12:50 21 26 4.76 0.8 35 39 1016.3 0 11.2 18.7 23.5 60.9 47.1 159.1
06 12:40 20.7 27 4.86 1.1 28 32 1016.6 0 11.4 18.9 23.9 62.0 48.3 163.4
06 12:30 19.9 28 4.81 0.9 26 39 1015.8 0 11.4 19.0 24.0 62.1 48.2 163.0

Last Refresh: 07-Aug-2020 07:18:24

Most of the information presented on this site is sourced from the Bureau of Meteorology.  Copyright in all material sourced from the Bureau of Meteorology resides with the Commonwealth of Australia.